Ana Sayfa
METAR-TAF:

METAR-TAF

Havaalanları :

Taiyuan, Çin

Enlem: 37-47N, Boylam: 112-33E, yükseklik: 779 m

Güncel hava durumu gözlemi

Rapor saat 09:00 UTC de 11 dakika önce yapıldı.
Rüzgar değişken yönden 2 kt
Sıcaklık 34°C
Nem 16%
Basınç 1005 hPa
Görüş mesafesi 10 km veya daha fazla
4000 ft yükseklikte az bulutlu

METAR: ZBYN 180900Z VRB01MPS 9999 FEW040 34/05 Q1005 NOSIG

Saat: 17:11 (09:11 UTC)

Tahmin

Rapor saat 03:06 UTC de 6 saat ve 5 dakika önce yapıldı.
Ayın 18'si saat 06 UTC'den ayın 19'si saat 06 UTC'ye kadar geçerli Tahmin
Rüzgar güney/güneybatıdan 8 kt
Görüş mesafesi: 6000 m

TAF: ZBYN 180306Z 1806/1906 21004MPS 6000 NSC TX35/1807Z TN19/1822Z

4.000'den fazla havaalanı için hava durumu gözlemleri ve tahminleri (METAR ve TAF raporları).

Kullanılabilir istasyonlar harita üzerinde sarı ve kırmızı noktalarla gösterilir.

İstasyonun adını görmek için fareyi noktanın üzerinde gezdirin.

Sonrasında hava gözlem ve tahminlerini görmek için tıklayın.

Haritayı değiştirmek için: yaklaştırmak için siyah artı işaretli yeşil düğmeye ve uzaklaştırmak için de eksi işaretli düğmeye hızla tıklayın; bitişik haritalar için yeşil okları kullanın.


METAR-TAF: